Aviation Digital Data Service (ADDS)

Output produced by METARs form (0722 UTC 24 March 2019)
found at http://www.aviationweather.gov/metar/data/
 
KBOI 240703Z 15004KT 10SM SCT026 BKN038 OVC060 08/06 A2998 RMK AO2 T00830061
KBOI 240520Z 2406/2506 12007KT P6SM -RA BKN035 OVC050 
     FM241200 VRB05KT P6SM VCSH BKN060 
     FM241800 30007KT P6SM SCT060 
     FM250200 VRB05KT P6SM SKC
       
K65S 240715Z AUTO 00000KT 10SM CLR 02/00 A3007 RMK AO2
KBYI 240653Z AUTO 00000KT 10SM -RA SCT041 BKN060 OVC080 07/03 A3000 RMK AO2 RAB31 SLP145 P0000 T00670028 401330017
KBYI 240520Z 2406/2506 VRB06KT P6SM -RA SCT060 BKN090 
     FM241100 25015KT 6SM -RA SCT008 BKN015 OVC030 
     FM241700 27015G25KT P6SM VCSH SCT025 BKN050 
     FM250200 23010KT P6SM SCT040
       
KEUL 240656Z AUTO 00000KT 10SM -RA BKN027 OVC034 08/08 A2999 RMK AO2 SLP155 P0002 T00830078 401500044
KEUL 240520Z 2406/2506 VRB05KT P6SM -RA BKN022 OVC040 
     FM241200 28008KT P6SM VCSH BKN060 
     FM241800 26007KT P6SM SCT060 
     FM250100 VRB05KT P6SM SKC
       
KLLJ 240655Z AUTO 00000KT 10SM FEW060 BKN100 04/00 A3000 RMK AO2 SLP141 T00440000 401440006
KCOE 240656Z AUTO 07003KT 10SM CLR 02/01 A3006 RMK AO2 SLP209 T00220006 FZRANO
KCOE 240520Z 2406/2506 05005KT P6SM FEW070 BKN200 
     FM241500 VRB03KT P6SM VCSH BKN060 OVC100 
     FM241900 21005KT 6SM -RA BR BKN015 OVC025
       
KDIJ 240656Z AUTO 19005KT 10SM OVC008 M03/M03 A3006 RMK AO2 SLP201 T10331033 400501044
KDIJ 240707Z 2407/2506 16006KT 6SM BR OVC008 
     TEMPO 2414/2417 P6SM NSW SCT015 BKN030 
     FM241700 19008KT P6SM -RA BKN015 OVC030 
     FM242200 18010KT P6SM VCSH SCT020 BKN070 AMD LTD TO CLD VIS AND WIND
       
KGIC 240715Z AUTO 13005KT 10SM CLR 03/02 A3004 RMK AO1
KSUN 240715Z AUTO 33004KT 10SM DZ BKN031 OVC035 02/01 A3004 RMK AO2
KSUN 240520Z 2406/2512 VRB05KT P6SM VCSH SCT070 BKN150 
     FM241200 VRB05KT 3SM -RASN BKN015 OVC030 
     FM241900 16006KT P6SM VCSH SCT015 BKN040 
     FM250300 30008KT P6SM SCT050 AMD LTD TO CLD VIS AND WIND TIL 241300
       
KIDA 240653Z AUTO 35003KT 6SM BR CLR 00/M02 A3004 RMK AO2 SLP180 T00001017 400831006
KIDA 240520Z 2406/2506 VRB05KT P6SM VCSH BKN035 OVC050 
     FM241600 23012G22KT P6SM VCSH SCT015 BKN040 OVC100 
     FM241900 21016G26KT P6SM -RA BKN015 OVC040 
     FM250100 20012KT P6SM VCSH SCT020 BKN035
       
KJER 240553Z AUTO 02006KT 10SM -RA SCT060 OVC080 07/04 A3001 RMK AO2 RAB0459 SLP158 P0000 60000 T00670044 10111 20067 50002
KJER 240520Z 2406/2506 03007KT P6SM -RA BKN040 OVC070 
     FM241300 23010KT P6SM VCSH SCT010 OVC050 
     FM241900 24010KT P6SM BKN050 
     FM250200 VRB05KT P6SM SKC
       
KLWS 240656Z AUTO 18003KT 10SM CLR 09/03 A3005 RMK AO2 SLP178 T00940028
KLWS 240520Z 2406/2506 25005KT P6SM VCSH OVC070 
     FM241000 23004KT 6SM -RA BR OVC025 
     FM241900 VRB04KT P6SM -RA BKN030 OVC050 
     FM250000 18003KT P6SM BKN050
       
KMYL 240715Z AUTO 00000KT 5SM -RA BR FEW020 BKN033 OVC049 02/01 A2998 RMK AO2 P0001 T00170011 $
KMYL 240520Z 2406/2506 VRB03KT P6SM -RASN OVC025 
     FM241300 18005KT 2SM -SN OVC008 
     FM242100 05007KT P6SM BKN025 
     FM250100 VRB03KT P6SM SCT025 BKN040
       
KMAN 240715Z AUTO 00000KT 9SM SCT024 BKN034 OVC043 08/08 A2998 RMK A01
K1U7 240715Z AUTO 27003KT 6SM BR BKN110 M03/M03 A3003 RMK A01
KPIH 240653Z AUTO 33004KT 10SM OVC110 04/02 A3002 RMK AO2 SLP160 T00390017 401060039
KPIH 240520Z 2406/2506 VRB05KT P6SM VCSH SCT040 BKN180 
     FM241400 17006KT P6SM -RA BKN020 OVC040 
     FM241700 23015G25KT P6SM -RA BKN015 OVC040 
     FM242100 23017G27KT P6SM SCT020 
     FM250200 21011KT P6SM SCT040
       
KRXE 240653Z AUTO 02004KT 10SM CLR M01/M02 A3003 RMK AO2 SLP180 T10061022 400831006 $
KSMN 240656Z AUTO 00000KT 10SM FEW085 03/00 A3001 RMK AO2 SLP173 T00330000 401441006
KSMN 240520Z 2406/2506 VRB03KT P6SM BKN120 
     FM241200 00000KT P6SM VCSH OVC070 
     FM250000 22006KT P6SM -SHRA BKN045
       
KSZT 240715Z AUTO 00000KT 10SM CLR 00/00 A3007 RMK AO2
KTWF 240653Z AUTO 21004KT 10SM -RA FEW023 SCT029 OVC043 06/04 A3001 RMK AO2 SLP143 P0004 T00560039 401330028
KTWF 240520Z 2406/2506 VRB05KT P6SM -RA BKN040 OVC070 
     FM241200 25010KT P6SM VCSH BKN060 
     FM241800 26007KT P6SM SCT060 
     FM250200 20008KT P6SM SKC